Youngstown Warren Regional Airport
KYNG : now visible

Airfield :











YOU CAN JOIN US ON...

 
LOGIN :

Register | Disclaimer

   EN    FR    IT 

 









Legend :    VFR   Marginal VFR   IFR   Intensive IFR   Very Intensive IFR
Visi :
Ceiling :
>= 8 km
>= 3000ft
5 to 8 km
1000 to 3000 ft
1500m to 5 km
500 to 1000 ft
800 to 1500m
200 to 500 ft
< 800m
< 200 ft
Symbols :   Thunderstorms  Fog  Heavy snow  Heavy precipitations  Wind > 20 kt






- Airport Elevation : 1192 ft
- IATA code : YNG


KYNG - Youngstown Warren Regional

CURRENT METAR :
  • 291426Z 20010G18KT 10SM BKN017 OVC250 23/18 A2992 RMK AO2 T02330178 $

EXPIRED METARs :
  • 291351Z 20011KT 10SM BKN014 OVC250 23/18 A2993 RMK AO2 SLP127 T02330183 $
  • 291251Z 20010G15KT 10SM BKN013 BKN075 BKN110 OVC250 22/18 A2994 RMK AO2 SLP129 T02170178 $
  • 291151Z 18009KT 10SM FEW008 BKN060 BKN110 OVC250 21/18 A2994 RMK AO2 SLP130 60001 70064 T02060178 10217 20194 53007 $

TAF KYNG
Valid from the 29 at 12:00 until the 30 at 12:00 UTC


291125Z 2912/3012 21010KT P6SM -SHRA SCT030 BKN070
FM291600 23012KT P6SM -SHRA SCT010 BKN040
TEMPO 2920/2922 25035G45KT 4SM +TSRA SCT005 OVC030CB
FM292200 30012KT P6SM -SHRA SCT005 OVC020
FM300100 VRB05KT P6SM SCT020 SCT040
KZOB FIR / North America



MET'MAP, your aeronautical weather chart ! - Copyright ORBIFLY December 2007 - Disclaimer

ORBIFLY MET'MAP TEAM :

Programming & Development : Alexandra Zaïnal
Concept & original design : Baudouin d'Aumeries
Assistance for programming : Marc-Olivier Méhu
Technical & hardware support : Manuel Goepfert

Contact : metmap@orbifly.com




SOURCES & CREDITS :

   NOAA       Earth
Advisory